sensor_id;sensor_type;location;lat;lon;timestamp;temperature;humidity
65836;SHT30;52595;51.608;7.216;2023-07-16T00:02:23;19.38;83.95
65836;SHT30;52595;51.608;7.216;2023-07-16T00:04:49;19.35;84.12
65836;SHT30;52595;51.608;7.216;2023-07-16T00:07:14;19.32;84.24
65836;SHT30;52595;51.608;7.216;2023-07-16T00:09:39;19.30;84.33
65836;SHT30;52595;51.608;7.216;2023-07-16T00:12:05;19.26;84.59
65836;SHT30;52595;51.608;7.216;2023-07-16T00:14:31;19.22;84.81
65836;SHT30;52595;51.608;7.216;2023-07-16T00:16:57;19.25;84.82
65836;SHT30;52595;51.608;7.216;2023-07-16T00:19:23;19.26;84.88
65836;SHT30;52595;51.608;7.216;2023-07-16T00:21:48;19.29;84.87
65836;SHT30;52595;51.608;7.216;2023-07-16T00:24:13;19.29;85.00
65836;SHT30;52595;51.608;7.216;2023-07-16T00:26:39;19.23;85.38
65836;SHT30;52595;51.608;7.216;2023-07-16T00:29:04;19.20;85.50
65836;SHT30;52595;51.608;7.216;2023-07-16T00:31:30;19.14;85.69
65836;SHT30;52595;51.608;7.216;2023-07-16T00:33:58;19.08;86.11
65836;SHT30;52595;51.608;7.216;2023-07-16T00:36:23;18.95;86.51
65836;SHT30;52595;51.608;7.216;2023-07-16T00:38:48;18.92;86.74
65836;SHT30;52595;51.608;7.216;2023-07-16T00:41:15;18.85;87.08
65836;SHT30;52595;51.608;7.216;2023-07-16T00:43:41;18.78;87.39
65836;SHT30;52595;51.608;7.216;2023-07-16T00:46:08;18.81;87.39
65836;SHT30;52595;51.608;7.216;2023-07-16T00:48:36;18.75;87.64
65836;SHT30;52595;51.608;7.216;2023-07-16T00:51:02;18.74;87.85
65836;SHT30;52595;51.608;7.216;2023-07-16T00:53:28;18.72;88.00
65836;SHT30;52595;51.608;7.216;2023-07-16T00:55:54;18.72;87.89
65836;SHT30;52595;51.608;7.216;2023-07-16T00:58:19;18.68;88.16
65836;SHT30;52595;51.608;7.216;2023-07-16T01:00:45;18.64;88.26
65836;SHT30;52595;51.608;7.216;2023-07-16T01:03:13;18.54;88.99
65836;SHT30;52595;51.608;7.216;2023-07-16T01:05:47;18.44;89.37
65836;SHT30;52595;51.608;7.216;2023-07-16T01:08:18;18.31;89.95
65836;SHT30;52595;51.608;7.216;2023-07-16T01:10:45;18.22;90.43
65836;SHT30;52595;51.608;7.216;2023-07-16T01:13:11;18.18;90.55
65836;SHT30;52595;51.608;7.216;2023-07-16T01:15:36;18.14;90.91
65836;SHT30;52595;51.608;7.216;2023-07-16T01:18:04;18.09;91.28
65836;SHT30;52595;51.608;7.216;2023-07-16T01:20:30;18.04;91.49
65836;SHT30;52595;51.608;7.216;2023-07-16T01:28:21;17.94;92.11
65836;SHT30;52595;51.608;7.216;2023-07-16T01:30:54;17.94;92.27
65836;SHT30;52595;51.608;7.216;2023-07-16T01:33:20;17.82;92.70
65836;SHT30;52595;51.608;7.216;2023-07-16T01:35:47;17.83;92.83
65836;SHT30;52595;51.608;7.216;2023-07-16T01:38:12;17.78;93.06
65836;SHT30;52595;51.608;7.216;2023-07-16T01:40:38;17.73;93.29
65836;SHT30;52595;51.608;7.216;2023-07-16T01:43:04;17.68;93.54
65836;SHT30;52595;51.608;7.216;2023-07-16T01:45:29;17.70;93.61
65836;SHT30;52595;51.608;7.216;2023-07-16T01:48:06;17.66;93.70
65836;SHT30;52595;51.608;7.216;2023-07-16T01:50:32;17.62;93.94
65836;SHT30;52595;51.608;7.216;2023-07-16T01:52:57;17.53;94.12
65836;SHT30;52595;51.608;7.216;2023-07-16T01:55:23;17.53;94.00
65836;SHT30;52595;51.608;7.216;2023-07-16T01:57:48;17.50;93.98
65836;SHT30;52595;51.608;7.216;2023-07-16T02:00:14;17.43;94.13
65836;SHT30;52595;51.608;7.216;2023-07-16T02:02:39;17.45;93.83
65836;SHT30;52595;51.608;7.216;2023-07-16T02:05:05;17.49;93.72
65836;SHT30;52595;51.608;7.216;2023-07-16T02:07:30;17.55;93.54
65836;SHT30;52595;51.608;7.216;2023-07-16T02:09:56;17.53;93.28
65836;SHT30;52595;51.608;7.216;2023-07-16T02:12:21;17.48;93.54
65836;SHT30;52595;51.608;7.216;2023-07-16T02:14:46;17.45;93.59
65836;SHT30;52595;51.608;7.216;2023-07-16T02:17:12;17.46;93.49
65836;SHT30;52595;51.608;7.216;2023-07-16T02:19:39;17.42;93.44
65836;SHT30;52595;51.608;7.216;2023-07-16T02:22:05;17.46;93.38
65836;SHT30;52595;51.608;7.216;2023-07-16T02:24:30;17.43;93.35
65836;SHT30;52595;51.608;7.216;2023-07-16T02:26:56;17.53;92.86
65836;SHT30;52595;51.608;7.216;2023-07-16T02:29:21;17.55;92.81
65836;SHT30;52595;51.608;7.216;2023-07-16T02:31:46;17.59;92.63
65836;SHT30;52595;51.608;7.216;2023-07-16T02:34:13;17.63;92.62
65836;SHT30;52595;51.608;7.216;2023-07-16T02:36:39;17.59;92.66
65836;SHT30;52595;51.608;7.216;2023-07-16T02:39:04;17.62;92.47
65836;SHT30;52595;51.608;7.216;2023-07-16T02:41:30;17.59;92.51
65836;SHT30;52595;51.608;7.216;2023-07-16T02:44:04;17.50;92.75
65836;SHT30;52595;51.608;7.216;2023-07-16T02:46:30;17.50;92.77
65836;SHT30;52595;51.608;7.216;2023-07-16T02:48:55;17.53;92.52
65836;SHT30;52595;51.608;7.216;2023-07-16T02:51:23;17.56;92.53
65836;SHT30;52595;51.608;7.216;2023-07-16T02:53:49;17.69;91.91
65836;SHT30;52595;51.608;7.216;2023-07-16T02:56:14;17.76;91.69
65836;SHT30;52595;51.608;7.216;2023-07-16T02:58:39;17.76;91.69
65836;SHT30;52595;51.608;7.216;2023-07-16T03:01:08;17.82;91.35
65836;SHT30;52595;51.608;7.216;2023-07-16T03:03:33;17.89;91.00
65836;SHT30;52595;51.608;7.216;2023-07-16T03:05:59;17.87;91.01
65836;SHT30;52595;51.608;7.216;2023-07-16T03:08:26;17.82;90.95
65836;SHT30;52595;51.608;7.216;2023-07-16T03:10:55;17.83;90.89
65836;SHT30;52595;51.608;7.216;2023-07-16T03:13:21;17.83;90.99
65836;SHT30;52595;51.608;7.216;2023-07-16T03:15:47;17.92;90.77
65836;SHT30;52595;51.608;7.216;2023-07-16T03:18:12;17.97;90.56
65836;SHT30;52595;51.608;7.216;2023-07-16T03:20:38;18.00;90.70
65836;SHT30;52595;51.608;7.216;2023-07-16T03:23:03;17.97;90.81
65836;SHT30;52595;51.608;7.216;2023-07-16T03:25:28;17.90;91.09
65836;SHT30;52595;51.608;7.216;2023-07-16T03:27:54;17.92;91.05
65836;SHT30;52595;51.608;7.216;2023-07-16T03:30:19;17.92;90.88
65836;SHT30;52595;51.608;7.216;2023-07-16T03:32:45;17.93;90.62
65836;SHT30;52595;51.608;7.216;2023-07-16T03:35:10;17.94;90.43
65836;SHT30;52595;51.608;7.216;2023-07-16T03:37:35;17.85;90.73
65836;SHT30;52595;51.608;7.216;2023-07-16T03:40:16;17.78;90.85
65836;SHT30;52595;51.608;7.216;2023-07-16T03:42:42;17.72;90.76
65836;SHT30;52595;51.608;7.216;2023-07-16T03:45:08;17.85;89.47
65836;SHT30;52595;51.608;7.216;2023-07-16T03:47:33;17.85;89.12
65836;SHT30;52595;51.608;7.216;2023-07-16T03:50:00;17.83;88.63
65836;SHT30;52595;51.608;7.216;2023-07-16T03:52:25;17.79;88.50
65836;SHT30;52595;51.608;7.216;2023-07-16T03:54:52;17.79;88.57
65836;SHT30;52595;51.608;7.216;2023-07-16T03:57:17;17.73;88.49
65836;SHT30;52595;51.608;7.216;2023-07-16T03:59:42;17.78;87.87
65836;SHT30;52595;51.608;7.216;2023-07-16T04:02:08;17.76;87.13
65836;SHT30;52595;51.608;7.216;2023-07-16T04:04:34;17.73;86.58
65836;SHT30;52595;51.608;7.216;2023-07-16T04:06:59;17.75;86.41
65836;SHT30;52595;51.608;7.216;2023-07-16T04:09:24;17.70;85.51
65836;SHT30;52595;51.608;7.216;2023-07-16T04:11:50;17.61;85.86
65836;SHT30;52595;51.608;7.216;2023-07-16T04:14:15;17.65;84.39
65836;SHT30;52595;51.608;7.216;2023-07-16T04:16:41;17.73;83.38
65836;SHT30;52595;51.608;7.216;2023-07-16T04:19:08;17.70;83.34
65836;SHT30;52595;51.608;7.216;2023-07-16T04:21:34;17.69;82.80
65836;SHT30;52595;51.608;7.216;2023-07-16T04:24:01;17.69;82.64
65836;SHT30;52595;51.608;7.216;2023-07-16T04:26:27;17.66;82.17
65836;SHT30;52595;51.608;7.216;2023-07-16T04:28:52;17.66;80.79
65836;SHT30;52595;51.608;7.216;2023-07-16T04:31:17;17.68;80.19
65836;SHT30;52595;51.608;7.216;2023-07-16T04:33:43;17.68;80.67
65836;SHT30;52595;51.608;7.216;2023-07-16T04:36:08;17.63;80.62
65836;SHT30;52595;51.608;7.216;2023-07-16T04:38:34;17.66;80.45
65836;SHT30;52595;51.608;7.216;2023-07-16T04:40:59;17.69;80.56
65836;SHT30;52595;51.608;7.216;2023-07-16T04:43:24;17.76;79.98
65836;SHT30;52595;51.608;7.216;2023-07-16T04:45:50;17.70;80.41
65836;SHT30;52595;51.608;7.216;2023-07-16T04:48:15;17.65;80.48
65836;SHT30;52595;51.608;7.216;2023-07-16T04:50:40;17.76;79.50
65836;SHT30;52595;51.608;7.216;2023-07-16T04:53:09;17.89;77.85
65836;SHT30;52595;51.608;7.216;2023-07-16T04:55:38;17.79;78.69
65836;SHT30;52595;51.608;7.216;2023-07-16T04:58:04;17.86;78.11
65836;SHT30;52595;51.608;7.216;2023-07-16T05:00:32;17.83;77.83
65836;SHT30;52595;51.608;7.216;2023-07-16T05:02:58;17.80;78.11
65836;SHT30;52595;51.608;7.216;2023-07-16T05:05:24;17.82;78.00
65836;SHT30;52595;51.608;7.216;2023-07-16T05:07:49;17.82;77.96
65836;SHT30;52595;51.608;7.216;2023-07-16T05:10:17;17.82;78.09
65836;SHT30;52595;51.608;7.216;2023-07-16T05:12:43;17.79;78.52
65836;SHT30;52595;51.608;7.216;2023-07-16T05:15:09;17.79;78.25
65836;SHT30;52595;51.608;7.216;2023-07-16T05:17:34;17.80;78.54
65836;SHT30;52595;51.608;7.216;2023-07-16T05:20:00;17.83;78.22
65836;SHT30;52595;51.608;7.216;2023-07-16T05:22:25;17.87;77.67
65836;SHT30;52595;51.608;7.216;2023-07-16T05:24:50;17.94;76.13
65836;SHT30;52595;51.608;7.216;2023-07-16T05:27:16;17.99;76.23
65836;SHT30;52595;51.608;7.216;2023-07-16T05:29:41;17.96;76.33
65836;SHT30;52595;51.608;7.216;2023-07-16T05:32:07;18.02;75.70
65836;SHT30;52595;51.608;7.216;2023-07-16T05:34:32;18.02;75.49
65836;SHT30;52595;51.608;7.216;2023-07-16T05:36:58;18.00;75.36
65836;SHT30;52595;51.608;7.216;2023-07-16T05:39:24;18.00;75.39
65836;SHT30;52595;51.608;7.216;2023-07-16T05:41:49;18.00;75.82
65836;SHT30;52595;51.608;7.216;2023-07-16T05:44:15;18.02;75.84
65836;SHT30;52595;51.608;7.216;2023-07-16T05:46:40;18.04;76.16
65836;SHT30;52595;51.608;7.216;2023-07-16T05:49:06;18.04;76.55
65836;SHT30;52595;51.608;7.216;2023-07-16T05:51:31;18.10;75.97
65836;SHT30;52595;51.608;7.216;2023-07-16T05:53:57;18.13;76.79
65836;SHT30;52595;51.608;7.216;2023-07-16T05:56:22;18.14;76.60
65836;SHT30;52595;51.608;7.216;2023-07-16T05:58:48;18.18;76.39
65836;SHT30;52595;51.608;7.216;2023-07-16T06:01:13;18.29;76.27
65836;SHT30;52595;51.608;7.216;2023-07-16T06:03:38;18.27;75.99
65836;SHT30;52595;51.608;7.216;2023-07-16T06:06:04;18.18;75.38
65836;SHT30;52595;51.608;7.216;2023-07-16T06:08:32;18.23;75.51
65836;SHT30;52595;51.608;7.216;2023-07-16T06:10:58;18.27;75.72
65836;SHT30;52595;51.608;7.216;2023-07-16T06:13:23;18.24;74.38
65836;SHT30;52595;51.608;7.216;2023-07-16T06:15:48;18.23;74.81
65836;SHT30;52595;51.608;7.216;2023-07-16T06:18:14;18.23;74.92
65836;SHT30;52595;51.608;7.216;2023-07-16T06:20:43;18.20;73.94
65836;SHT30;52595;51.608;7.216;2023-07-16T06:23:09;18.27;73.90
65836;SHT30;52595;51.608;7.216;2023-07-16T06:25:36;18.29;73.39
65836;SHT30;52595;51.608;7.216;2023-07-16T06:28:01;18.24;73.03
65836;SHT30;52595;51.608;7.216;2023-07-16T06:30:27;18.27;73.33
65836;SHT30;52595;51.608;7.216;2023-07-16T06:32:52;18.31;72.90
65836;SHT30;52595;51.608;7.216;2023-07-16T06:35:17;18.27;73.54
65836;SHT30;52595;51.608;7.216;2023-07-16T06:37:43;18.40;73.51
65836;SHT30;52595;51.608;7.216;2023-07-16T06:40:08;18.48;72.70
65836;SHT30;52595;51.608;7.216;2023-07-16T06:42:34;18.44;72.95
65836;SHT30;52595;51.608;7.216;2023-07-16T06:44:59;18.48;72.69
65836;SHT30;52595;51.608;7.216;2023-07-16T06:47:25;18.57;72.56
65836;SHT30;52595;51.608;7.216;2023-07-16T06:49:50;18.53;72.69
65836;SHT30;52595;51.608;7.216;2023-07-16T06:52:20;18.43;72.52
65836;SHT30;52595;51.608;7.216;2023-07-16T06:54:45;18.47;72.65
65836;SHT30;52595;51.608;7.216;2023-07-16T06:57:11;18.65;72.49
65836;SHT30;52595;51.608;7.216;2023-07-16T06:59:36;18.75;72.02
65836;SHT30;52595;51.608;7.216;2023-07-16T07:02:01;18.68;72.25
65836;SHT30;52595;51.608;7.216;2023-07-16T07:04:27;18.75;71.71
65836;SHT30;52595;51.608;7.216;2023-07-16T07:06:53;18.67;72.01
65836;SHT30;52595;51.608;7.216;2023-07-16T07:09:18;18.53;72.02
65836;SHT30;52595;51.608;7.216;2023-07-16T07:11:46;18.43;71.84
65836;SHT30;52595;51.608;7.216;2023-07-16T07:14:11;18.50;72.29
65836;SHT30;52595;51.608;7.216;2023-07-16T07:16:37;18.58;71.75
65836;SHT30;52595;51.608;7.216;2023-07-16T07:19:02;18.71;71.70
65836;SHT30;52595;51.608;7.216;2023-07-16T07:21:30;18.72;71.08
65836;SHT30;52595;51.608;7.216;2023-07-16T07:23:55;18.94;71.27
65836;SHT30;52595;51.608;7.216;2023-07-16T07:26:20;19.04;70.76
65836;SHT30;52595;51.608;7.216;2023-07-16T07:28:46;18.87;70.10
65836;SHT30;52595;51.608;7.216;2023-07-16T07:31:11;19.01;70.48
65836;SHT30;52595;51.608;7.216;2023-07-16T07:33:36;19.16;70.81
65836;SHT30;52595;51.608;7.216;2023-07-16T07:36:02;19.20;69.37
65836;SHT30;52595;51.608;7.216;2023-07-16T07:38:27;19.32;69.99
65836;SHT30;52595;51.608;7.216;2023-07-16T07:40:53;19.22;69.23
65836;SHT30;52595;51.608;7.216;2023-07-16T07:43:19;19.38;69.29
65836;SHT30;52595;51.608;7.216;2023-07-16T07:45:44;19.39;69.06
65836;SHT30;52595;51.608;7.216;2023-07-16T07:48:09;19.56;69.57
65836;SHT30;52595;51.608;7.216;2023-07-16T07:50:35;19.63;68.35
65836;SHT30;52595;51.608;7.216;2023-07-16T07:53:00;19.62;68.16
65836;SHT30;52595;51.608;7.216;2023-07-16T07:55:26;19.74;68.35
65836;SHT30;52595;51.608;7.216;2023-07-16T07:57:51;19.65;68.28
65836;SHT30;52595;51.608;7.216;2023-07-16T08:00:16;19.65;67.58
65836;SHT30;52595;51.608;7.216;2023-07-16T08:02:42;19.70;67.97
65836;SHT30;52595;51.608;7.216;2023-07-16T08:05:08;19.77;67.69
65836;SHT30;52595;51.608;7.216;2023-07-16T08:07:33;19.83;67.11
65836;SHT30;52595;51.608;7.216;2023-07-16T08:09:58;19.83;67.10
65836;SHT30;52595;51.608;7.216;2023-07-16T08:12:24;19.86;67.41
65836;SHT30;52595;51.608;7.216;2023-07-16T08:14:49;19.60;66.97
65836;SHT30;52595;51.608;7.216;2023-07-16T08:17:15;19.60;67.56
65836;SHT30;52595;51.608;7.216;2023-07-16T08:19:40;19.50;67.38
65836;SHT30;52595;51.608;7.216;2023-07-16T08:22:05;19.70;67.67
65836;SHT30;52595;51.608;7.216;2023-07-16T08:24:31;19.72;66.86
65836;SHT30;52595;51.608;7.216;2023-07-16T08:26:56;19.70;67.75
65836;SHT30;52595;51.608;7.216;2023-07-16T08:29:21;19.94;66.93
65836;SHT30;52595;51.608;7.216;2023-07-16T08:31:47;19.77;66.34
65836;SHT30;52595;51.608;7.216;2023-07-16T08:34:12;19.94;65.19
65836;SHT30;52595;51.608;7.216;2023-07-16T08:36:37;19.97;65.50
65836;SHT30;52595;51.608;7.216;2023-07-16T08:39:03;19.91;65.21
65836;SHT30;52595;51.608;7.216;2023-07-16T08:41:29;19.94;65.61
65836;SHT30;52595;51.608;7.216;2023-07-16T08:43:55;20.18;65.17
65836;SHT30;52595;51.608;7.216;2023-07-16T08:46:21;19.96;65.26
65836;SHT30;52595;51.608;7.216;2023-07-16T08:48:48;20.11;65.33
65836;SHT30;52595;51.608;7.216;2023-07-16T08:51:14;20.28;64.19
65836;SHT30;52595;51.608;7.216;2023-07-16T08:53:40;20.45;65.53
65836;SHT30;52595;51.608;7.216;2023-07-16T08:56:05;20.56;63.98
65836;SHT30;52595;51.608;7.216;2023-07-16T08:58:31;20.56;63.91
65836;SHT30;52595;51.608;7.216;2023-07-16T09:00:59;20.76;63.80
65836;SHT30;52595;51.608;7.216;2023-07-16T09:03:27;21.08;61.94
65836;SHT30;52595;51.608;7.216;2023-07-16T09:05:54;20.76;63.03
65836;SHT30;52595;51.608;7.216;2023-07-16T09:08:19;20.58;63.08
65836;SHT30;52595;51.608;7.216;2023-07-16T09:10:53;20.40;63.90
65836;SHT30;52595;51.608;7.216;2023-07-16T09:13:19;20.52;63.83
65836;SHT30;52595;51.608;7.216;2023-07-16T09:15:50;20.63;63.98
65836;SHT30;52595;51.608;7.216;2023-07-16T09:18:22;20.43;64.00
65836;SHT30;52595;51.608;7.216;2023-07-16T09:20:57;20.79;63.36
65836;SHT30;52595;51.608;7.216;2023-07-16T09:23:27;21.00;62.74
65836;SHT30;52595;51.608;7.216;2023-07-16T09:25:55;21.18;63.21
65836;SHT30;52595;51.608;7.216;2023-07-16T09:28:21;21.56;61.65
65836;SHT30;52595;51.608;7.216;2023-07-16T09:30:47;21.87;61.21
65836;SHT30;52595;51.608;7.216;2023-07-16T09:33:21;21.60;60.91
65836;SHT30;52595;51.608;7.216;2023-07-16T09:35:50;21.43;60.93
65836;SHT30;52595;51.608;7.216;2023-07-16T09:38:16;21.59;60.27
65836;SHT30;52595;51.608;7.216;2023-07-16T09:40:45;22.03;61.54
65836;SHT30;52595;51.608;7.216;2023-07-16T09:43:12;21.91;60.22
65836;SHT30;52595;51.608;7.216;2023-07-16T09:45:38;22.18;60.56
65836;SHT30;52595;51.608;7.216;2023-07-16T09:48:04;21.77;59.90
65836;SHT30;52595;51.608;7.216;2023-07-16T09:50:34;21.74;60.45
65836;SHT30;52595;51.608;7.216;2023-07-16T09:53:00;22.37;59.04
65836;SHT30;52595;51.608;7.216;2023-07-16T09:55:25;22.47;58.80
65836;SHT30;52595;51.608;7.216;2023-07-16T09:57:55;21.90;59.98
65836;SHT30;52595;51.608;7.216;2023-07-16T10:00:22;22.33;58.99
65836;SHT30;52595;51.608;7.216;2023-07-16T10:02:49;22.49;58.77
65836;SHT30;52595;51.608;7.216;2023-07-16T10:05:16;22.41;59.02
65836;SHT30;52595;51.608;7.216;2023-07-16T10:07:42;22.28;58.98
65836;SHT30;52595;51.608;7.216;2023-07-16T10:10:09;22.07;59.66
65836;SHT30;52595;51.608;7.216;2023-07-16T10:12:36;21.73;59.58
65836;SHT30;52595;51.608;7.216;2023-07-16T10:15:01;21.80;59.60
65836;SHT30;52595;51.608;7.216;2023-07-16T10:17:30;21.61;59.64
65836;SHT30;52595;51.608;7.216;2023-07-16T10:20:07;21.69;59.71
65836;SHT30;52595;51.608;7.216;2023-07-16T10:22:38;21.87;59.70
65836;SHT30;52595;51.608;7.216;2023-07-16T10:27:43;21.50;60.05
65836;SHT30;52595;51.608;7.216;2023-07-16T10:30:08;21.54;59.89
65836;SHT30;52595;51.608;7.216;2023-07-16T10:32:34;21.90;60.03
65836;SHT30;52595;51.608;7.216;2023-07-16T10:35:00;21.89;60.18
65836;SHT30;52595;51.608;7.216;2023-07-16T10:37:26;21.63;59.84
65836;SHT30;52595;51.608;7.216;2023-07-16T10:39:59;21.66;59.88
65836;SHT30;52595;51.608;7.216;2023-07-16T10:42:26;21.63;59.85
65836;SHT30;52595;51.608;7.216;2023-07-16T10:44:53;21.96;59.36
65836;SHT30;52595;51.608;7.216;2023-07-16T10:47:23;21.84;59.69
65836;SHT30;52595;51.608;7.216;2023-07-16T10:49:51;21.91;59.40
65836;SHT30;52595;51.608;7.216;2023-07-16T10:52:21;22.00;58.86
65836;SHT30;52595;51.608;7.216;2023-07-16T10:54:46;22.08;59.57
65836;SHT30;52595;51.608;7.216;2023-07-16T10:57:13;22.59;58.27
65836;SHT30;52595;51.608;7.216;2023-07-16T10:59:39;22.37;58.18
65836;SHT30;52595;51.608;7.216;2023-07-16T11:02:08;22.22;58.34
65836;SHT30;52595;51.608;7.216;2023-07-16T11:04:35;21.98;58.66
65836;SHT30;52595;51.608;7.216;2023-07-16T11:07:08;21.87;59.30
65836;SHT30;52595;51.608;7.216;2023-07-16T11:09:34;22.18;59.20
65836;SHT30;52595;51.608;7.216;2023-07-16T11:12:11;22.68;57.68
65836;SHT30;52595;51.608;7.216;2023-07-16T11:14:37;22.84;57.59
65836;SHT30;52595;51.608;7.216;2023-07-16T11:17:08;22.69;57.20
65836;SHT30;52595;51.608;7.216;2023-07-16T11:19:35;22.64;58.01
65836;SHT30;52595;51.608;7.216;2023-07-16T11:22:02;22.61;58.73
65836;SHT30;52595;51.608;7.216;2023-07-16T11:24:27;22.34;58.81
65836;SHT30;52595;51.608;7.216;2023-07-16T11:26:55;22.61;58.61
65836;SHT30;52595;51.608;7.216;2023-07-16T11:29:23;22.54;59.00
65836;SHT30;52595;51.608;7.216;2023-07-16T11:31:50;22.52;59.07
65836;SHT30;52595;51.608;7.216;2023-07-16T11:34:15;22.35;58.95
65836;SHT30;52595;51.608;7.216;2023-07-16T11:36:41;22.56;59.88
65836;SHT30;52595;51.608;7.216;2023-07-16T11:39:07;22.37;59.08
65836;SHT30;52595;51.608;7.216;2023-07-16T11:41:32;22.55;59.15
65836;SHT30;52595;51.608;7.216;2023-07-16T11:44:01;22.43;58.80
65836;SHT30;52595;51.608;7.216;2023-07-16T11:46:33;22.78;59.49
65836;SHT30;52595;51.608;7.216;2023-07-16T11:49:00;22.69;58.62
65836;SHT30;52595;51.608;7.216;2023-07-16T11:51:28;22.73;59.10
65836;SHT30;52595;51.608;7.216;2023-07-16T11:53:55;22.56;59.15
65836;SHT30;52595;51.608;7.216;2023-07-16T11:56:21;22.47;59.09
65836;SHT30;52595;51.608;7.216;2023-07-16T11:58:47;22.34;59.12
65836;SHT30;52595;51.608;7.216;2023-07-16T12:01:12;22.41;58.73
65836;SHT30;52595;51.608;7.216;2023-07-16T12:03:39;22.51;58.43
65836;SHT30;52595;51.608;7.216;2023-07-16T12:06:05;22.25;58.58
65836;SHT30;52595;51.608;7.216;2023-07-16T12:08:30;22.28;59.29
65836;SHT30;52595;51.608;7.216;2023-07-16T12:10:55;22.62;58.60
65836;SHT30;52595;51.608;7.216;2023-07-16T12:13:21;22.88;58.36
65836;SHT30;52595;51.608;7.216;2023-07-16T12:15:49;23.18;58.36
65836;SHT30;52595;51.608;7.216;2023-07-16T12:18:15;22.56;58.14
65836;SHT30;52595;51.608;7.216;2023-07-16T12:20:40;22.79;58.68
65836;SHT30;52595;51.608;7.216;2023-07-16T12:23:06;22.75;58.38
65836;SHT30;52595;51.608;7.216;2023-07-16T12:25:31;22.72;57.80
65836;SHT30;52595;51.608;7.216;2023-07-16T12:27:56;22.55;58.27
65836;SHT30;52595;51.608;7.216;2023-07-16T12:30:23;22.37;58.69
65836;SHT30;52595;51.608;7.216;2023-07-16T12:32:49;22.31;58.97
65836;SHT30;52595;51.608;7.216;2023-07-16T12:35:14;22.43;58.76
65836;SHT30;52595;51.608;7.216;2023-07-16T12:37:40;22.35;58.77
65836;SHT30;52595;51.608;7.216;2023-07-16T12:40:06;22.44;58.72
65836;SHT30;52595;51.608;7.216;2023-07-16T12:42:31;22.31;58.48
65836;SHT30;52595;51.608;7.216;2023-07-16T12:44:57;22.18;59.19
65836;SHT30;52595;51.608;7.216;2023-07-16T12:47:22;22.20;59.38
65836;SHT30;52595;51.608;7.216;2023-07-16T12:49:48;22.15;59.78
65836;SHT30;52595;51.608;7.216;2023-07-16T12:52:13;22.40;59.39
65836;SHT30;52595;51.608;7.216;2023-07-16T12:54:38;22.78;58.85
65836;SHT30;52595;51.608;7.216;2023-07-16T12:57:04;23.63;57.74
65836;SHT30;52595;51.608;7.216;2023-07-16T12:59:29;23.75;56.53
65836;SHT30;52595;51.608;7.216;2023-07-16T13:01:55;23.59;56.55
65836;SHT30;52595;51.608;7.216;2023-07-16T13:04:21;22.99;57.06
65836;SHT30;52595;51.608;7.216;2023-07-16T13:06:46;22.98;57.32
65836;SHT30;52595;51.608;7.216;2023-07-16T13:09:13;22.85;57.63
65836;SHT30;52595;51.608;7.216;2023-07-16T13:11:39;23.10;57.71
65836;SHT30;52595;51.608;7.216;2023-07-16T13:14:04;22.86;58.22
65836;SHT30;52595;51.608;7.216;2023-07-16T13:16:30;22.92;57.91
65836;SHT30;52595;51.608;7.216;2023-07-16T13:18:55;23.46;57.43
65836;SHT30;52595;51.608;7.216;2023-07-16T13:21:21;23.61;57.00
65836;SHT30;52595;51.608;7.216;2023-07-16T13:23:46;23.64;56.97
65836;SHT30;52595;51.608;7.216;2023-07-16T13:26:12;24.08;55.66
65836;SHT30;52595;51.608;7.216;2023-07-16T13:28:37;24.93;54.49
65836;SHT30;52595;51.608;7.216;2023-07-16T13:31:02;25.49;53.17
65836;SHT30;52595;51.608;7.216;2023-07-16T13:33:28;25.39;52.90
65836;SHT30;52595;51.608;7.216;2023-07-16T13:35:53;25.43;53.08
65836;SHT30;52595;51.608;7.216;2023-07-16T13:38:18;24.75;54.12
65836;SHT30;52595;51.608;7.216;2023-07-16T13:40:44;25.15;53.34
65836;SHT30;52595;51.608;7.216;2023-07-16T13:43:09;25.41;53.06
65836;SHT30;52595;51.608;7.216;2023-07-16T13:45:35;24.78;53.72
65836;SHT30;52595;51.608;7.216;2023-07-16T13:48:01;25.06;54.32
65836;SHT30;52595;51.608;7.216;2023-07-16T13:50:26;25.56;52.69
65836;SHT30;52595;51.608;7.216;2023-07-16T13:52:51;24.86;54.26
65836;SHT30;52595;51.608;7.216;2023-07-16T13:55:17;24.35;55.55
65836;SHT30;52595;51.608;7.216;2023-07-16T13:57:43;25.34;53.76
65836;SHT30;52595;51.608;7.216;2023-07-16T14:00:08;25.97;52.28
65836;SHT30;52595;51.608;7.216;2023-07-16T14:02:36;26.89;50.81
65836;SHT30;52595;51.608;7.216;2023-07-16T14:05:01;27.27;49.61
65836;SHT30;52595;51.608;7.216;2023-07-16T14:07:27;26.42;51.75
65836;SHT30;52595;51.608;7.216;2023-07-16T14:09:52;25.71;52.06
65836;SHT30;52595;51.608;7.216;2023-07-16T14:12:17;26.34;50.81
65836;SHT30;52595;51.608;7.216;2023-07-16T14:14:43;26.08;52.11
65836;SHT30;52595;51.608;7.216;2023-07-16T14:17:08;26.69;51.39
65836;SHT30;52595;51.608;7.216;2023-07-16T14:19:35;26.90;50.33
65836;SHT30;52595;51.608;7.216;2023-07-16T14:22:01;27.13;50.93
65836;SHT30;52595;51.608;7.216;2023-07-16T14:24:26;27.49;49.60
65836;SHT30;52595;51.608;7.216;2023-07-16T14:26:52;26.86;49.58
65836;SHT30;52595;51.608;7.216;2023-07-16T14:29:17;26.80;50.30
65836;SHT30;52595;51.608;7.216;2023-07-16T14:31:45;25.30;52.72
65836;SHT30;52595;51.608;7.216;2023-07-16T14:34:11;25.53;52.38
65836;SHT30;52595;51.608;7.216;2023-07-16T14:36:37;26.20;51.84
65836;SHT30;52595;51.608;7.216;2023-07-16T14:39:02;26.86;49.66
65836;SHT30;52595;51.608;7.216;2023-07-16T14:41:29;26.31;50.69
65836;SHT30;52595;51.608;7.216;2023-07-16T14:43:54;26.48;51.66
65836;SHT30;52595;51.608;7.216;2023-07-16T14:46:19;27.06;50.22
65836;SHT30;52595;51.608;7.216;2023-07-16T14:48:45;27.11;49.64
65836;SHT30;52595;51.608;7.216;2023-07-16T14:51:11;27.11;48.77
65836;SHT30;52595;51.608;7.216;2023-07-16T14:53:37;27.17;47.89
65836;SHT30;52595;51.608;7.216;2023-07-16T14:56:03;26.11;49.34
65836;SHT30;52595;51.608;7.216;2023-07-16T14:58:31;25.95;50.48
65836;SHT30;52595;51.608;7.216;2023-07-16T15:00:59;26.80;48.89
65836;SHT30;52595;51.608;7.216;2023-07-16T15:03:25;25.75;50.09
65836;SHT30;52595;51.608;7.216;2023-07-16T15:05:55;26.12;49.36
65836;SHT30;52595;51.608;7.216;2023-07-16T15:08:21;26.62;49.04
65836;SHT30;52595;51.608;7.216;2023-07-16T15:10:46;26.20;48.69
65836;SHT30;52595;51.608;7.216;2023-07-16T15:13:12;26.14;49.21
65836;SHT30;52595;51.608;7.216;2023-07-16T15:15:37;25.91;49.61
65836;SHT30;52595;51.608;7.216;2023-07-16T15:18:03;25.54;49.68
65836;SHT30;52595;51.608;7.216;2023-07-16T15:20:28;25.64;49.37
65836;SHT30;52595;51.608;7.216;2023-07-16T15:22:54;25.36;49.70
65836;SHT30;52595;51.608;7.216;2023-07-16T15:25:19;25.23;50.35
65836;SHT30;52595;51.608;7.216;2023-07-16T15:27:45;25.33;50.51
65836;SHT30;52595;51.608;7.216;2023-07-16T15:30:11;25.13;50.90
65836;SHT30;52595;51.608;7.216;2023-07-16T15:32:38;25.03;50.74